sensor_id;sensor_type;location;lat;lon;timestamp;P1;durP1;ratioP1;P2;durP2;ratioP2
14169;SDS011;63889;50.596;8.690;2023-03-05T00:00:06;2.55;;;0.77;;
14169;SDS011;63889;50.596;8.690;2023-03-05T00:02:32;4.35;;;0.98;;
14169;SDS011;63889;50.596;8.690;2023-03-05T00:04:58;6.63;;;0.90;;
14169;SDS011;63889;50.596;8.690;2023-03-05T00:07:23;6.10;;;0.80;;
14169;SDS011;63889;50.596;8.690;2023-03-05T00:09:49;4.05;;;1.00;;
14169;SDS011;63889;50.596;8.690;2023-03-05T00:12:14;1.08;;;0.90;;
14169;SDS011;63889;50.596;8.690;2023-03-05T00:14:41;3.33;;;0.90;;
14169;SDS011;63889;50.596;8.690;2023-03-05T00:17:06;5.47;;;0.85;;
14169;SDS011;63889;50.596;8.690;2023-03-05T00:19:32;3.63;;;0.70;;
14169;SDS011;63889;50.596;8.690;2023-03-05T00:21:57;5.95;;;1.02;;
14169;SDS011;63889;50.596;8.690;2023-03-05T00:24:23;2.63;;;0.80;;
14169;SDS011;63889;50.596;8.690;2023-03-05T00:26:48;7.97;;;1.00;;
14169;SDS011;63889;50.596;8.690;2023-03-05T00:29:15;3.95;;;0.65;;
14169;SDS011;63889;50.596;8.690;2023-03-05T00:31:42;3.50;;;0.90;;
14169;SDS011;63889;50.596;8.690;2023-03-05T00:34:10;4.35;;;0.70;;
14169;SDS011;63889;50.596;8.690;2023-03-05T00:36:38;3.63;;;1.00;;
14169;SDS011;63889;50.596;8.690;2023-03-05T00:39:05;3.20;;;0.80;;
14169;SDS011;63889;50.596;8.690;2023-03-05T00:41:31;5.05;;;0.98;;
14169;SDS011;63889;50.596;8.690;2023-03-05T00:43:57;5.32;;;0.80;;
14169;SDS011;63889;50.596;8.690;2023-03-05T00:46:23;3.20;;;0.70;;
14169;SDS011;63889;50.596;8.690;2023-03-05T00:48:51;4.72;;;1.52;;
14169;SDS011;63889;50.596;8.690;2023-03-05T00:51:17;3.70;;;1.20;;
14169;SDS011;63889;50.596;8.690;2023-03-05T00:53:43;4.05;;;0.95;;
14169;SDS011;63889;50.596;8.690;2023-03-05T00:56:09;7.72;;;0.90;;
14169;SDS011;63889;50.596;8.690;2023-03-05T00:58:35;2.22;;;0.95;;
14169;SDS011;63889;50.596;8.690;2023-03-05T01:01:00;1.77;;;0.80;;
14169;SDS011;63889;50.596;8.690;2023-03-05T01:03:27;2.75;;;0.77;;
14169;SDS011;63889;50.596;8.690;2023-03-05T01:05:53;3.00;;;0.90;;
14169;SDS011;63889;50.596;8.690;2023-03-05T01:08:19;7.03;;;1.05;;
14169;SDS011;63889;50.596;8.690;2023-03-05T01:10:44;5.40;;;1.13;;
14169;SDS011;63889;50.596;8.690;2023-03-05T01:13:10;5.47;;;1.13;;
14169;SDS011;63889;50.596;8.690;2023-03-05T01:15:35;6.40;;;1.10;;
14169;SDS011;63889;50.596;8.690;2023-03-05T01:18:01;3.70;;;0.82;;
14169;SDS011;63889;50.596;8.690;2023-03-05T01:20:27;5.22;;;0.90;;
14169;SDS011;63889;50.596;8.690;2023-03-05T01:22:52;2.10;;;0.65;;
14169;SDS011;63889;50.596;8.690;2023-03-05T01:25:18;2.95;;;0.90;;
14169;SDS011;63889;50.596;8.690;2023-03-05T01:27:44;3.72;;;1.15;;
14169;SDS011;63889;50.596;8.690;2023-03-05T01:30:10;2.55;;;0.75;;
14169;SDS011;63889;50.596;8.690;2023-03-05T01:32:38;4.07;;;0.80;;
14169;SDS011;63889;50.596;8.690;2023-03-05T01:35:04;1.95;;;0.80;;
14169;SDS011;63889;50.596;8.690;2023-03-05T01:37:30;3.22;;;1.02;;
14169;SDS011;63889;50.596;8.690;2023-03-05T01:39:56;7.80;;;1.20;;
14169;SDS011;63889;50.596;8.690;2023-03-05T01:42:21;5.22;;;0.90;;
14169;SDS011;63889;50.596;8.690;2023-03-05T01:45:05;2.22;;;0.52;;
14169;SDS011;63889;50.596;8.690;2023-03-05T01:47:31;2.15;;;0.70;;
14169;SDS011;63889;50.596;8.690;2023-03-05T01:49:56;6.72;;;1.23;;
14169;SDS011;63889;50.596;8.690;2023-03-05T01:52:22;6.30;;;0.90;;
14169;SDS011;63889;50.596;8.690;2023-03-05T01:54:55;2.38;;;0.93;;
14169;SDS011;63889;50.596;8.690;2023-03-05T01:57:24;3.90;;;0.88;;
14169;SDS011;63889;50.596;8.690;2023-03-05T02:00:06;6.20;;;1.00;;
14169;SDS011;63889;50.596;8.690;2023-03-05T02:02:38;2.70;;;0.65;;
14169;SDS011;63889;50.596;8.690;2023-03-05T02:05:06;3.42;;;0.75;;
14169;SDS011;63889;50.596;8.690;2023-03-05T02:07:35;6.50;;;1.00;;
14169;SDS011;63889;50.596;8.690;2023-03-05T02:10:14;5.32;;;1.00;;
14169;SDS011;63889;50.596;8.690;2023-03-05T02:12:45;5.10;;;1.02;;
14169;SDS011;63889;50.596;8.690;2023-03-05T02:15:12;2.65;;;0.80;;
14169;SDS011;63889;50.596;8.690;2023-03-05T02:17:38;2.75;;;0.73;;
14169;SDS011;63889;50.596;8.690;2023-03-05T02:20:06;5.70;;;0.70;;
14169;SDS011;63889;50.596;8.690;2023-03-05T02:22:37;2.95;;;1.05;;
14169;SDS011;63889;50.596;8.690;2023-03-05T02:25:25;1.70;;;0.68;;
14169;SDS011;63889;50.596;8.690;2023-03-05T02:27:56;2.17;;;0.85;;
14169;SDS011;63889;50.596;8.690;2023-03-05T02:30:25;5.93;;;0.90;;
14169;SDS011;63889;50.596;8.690;2023-03-05T02:32:51;3.80;;;1.13;;
14169;SDS011;63889;50.596;8.690;2023-03-05T02:35:17;3.00;;;0.88;;
14169;SDS011;63889;50.596;8.690;2023-03-05T02:37:43;4.20;;;0.60;;
14169;SDS011;63889;50.596;8.690;2023-03-05T02:40:09;5.10;;;0.52;;
14169;SDS011;63889;50.596;8.690;2023-03-05T02:42:35;3.00;;;0.88;;
14169;SDS011;63889;50.596;8.690;2023-03-05T02:45:01;4.82;;;0.90;;
14169;SDS011;63889;50.596;8.690;2023-03-05T02:47:27;1.58;;;0.40;;
14169;SDS011;63889;50.596;8.690;2023-03-05T02:49:53;3.50;;;0.63;;
14169;SDS011;63889;50.596;8.690;2023-03-05T02:52:19;2.72;;;0.77;;
14169;SDS011;63889;50.596;8.690;2023-03-05T02:54:47;2.58;;;0.30;;
14169;SDS011;63889;50.596;8.690;2023-03-05T02:57:13;5.40;;;0.50;;
14169;SDS011;63889;50.596;8.690;2023-03-05T02:59:38;1.05;;;0.45;;
14169;SDS011;63889;50.596;8.690;2023-03-05T03:02:04;1.20;;;0.30;;
14169;SDS011;63889;50.596;8.690;2023-03-05T03:04:30;3.03;;;0.57;;
14169;SDS011;63889;50.596;8.690;2023-03-05T03:06:55;4.63;;;0.50;;
14169;SDS011;63889;50.596;8.690;2023-03-05T03:09:21;2.65;;;0.57;;
14169;SDS011;63889;50.596;8.690;2023-03-05T03:11:46;4.20;;;1.05;;
14169;SDS011;63889;50.596;8.690;2023-03-05T03:14:12;3.75;;;0.55;;
14169;SDS011;63889;50.596;8.690;2023-03-05T03:16:37;3.60;;;0.70;;
14169;SDS011;63889;50.596;8.690;2023-03-05T03:19:03;0.20;;;0.10;;
14169;SDS011;63889;50.596;8.690;2023-03-05T03:21:28;0.82;;;0.30;;
14169;SDS011;63889;50.596;8.690;2023-03-05T03:23:54;2.88;;;0.47;;
14169;SDS011;63889;50.596;8.690;2023-03-05T03:26:19;1.08;;;0.40;;
14169;SDS011;63889;50.596;8.690;2023-03-05T03:28:45;1.73;;;0.40;;
14169;SDS011;63889;50.596;8.690;2023-03-05T03:31:11;0.50;;;0.28;;
14169;SDS011;63889;50.596;8.690;2023-03-05T03:33:37;2.42;;;0.70;;
14169;SDS011;63889;50.596;8.690;2023-03-05T03:36:02;1.60;;;0.40;;
14169;SDS011;63889;50.596;8.690;2023-03-05T03:38:29;1.55;;;0.73;;
14169;SDS011;63889;50.596;8.690;2023-03-05T03:40:54;3.13;;;0.73;;
14169;SDS011;63889;50.596;8.690;2023-03-05T03:43:20;1.55;;;0.50;;
14169;SDS011;63889;50.596;8.690;2023-03-05T03:45:46;2.53;;;0.28;;
14169;SDS011;63889;50.596;8.690;2023-03-05T03:48:11;1.95;;;0.47;;
14169;SDS011;63889;50.596;8.690;2023-03-05T03:50:38;0.60;;;0.25;;
14169;SDS011;63889;50.596;8.690;2023-03-05T03:53:04;3.13;;;0.40;;
14169;SDS011;63889;50.596;8.690;2023-03-05T03:55:30;2.05;;;0.50;;
14169;SDS011;63889;50.596;8.690;2023-03-05T03:57:55;5.63;;;0.50;;
14169;SDS011;63889;50.596;8.690;2023-03-05T04:00:21;5.00;;;0.60;;
14169;SDS011;63889;50.596;8.690;2023-03-05T04:02:46;4.60;;;0.40;;
14169;SDS011;63889;50.596;8.690;2023-03-05T04:05:12;2.35;;;0.55;;
14169;SDS011;63889;50.596;8.690;2023-03-05T04:07:38;1.17;;;0.50;;
14169;SDS011;63889;50.596;8.690;2023-03-05T04:10:03;2.13;;;0.70;;
14169;SDS011;63889;50.596;8.690;2023-03-05T04:12:29;1.98;;;0.50;;
14169;SDS011;63889;50.596;8.690;2023-03-05T04:14:55;2.67;;;0.50;;
14169;SDS011;63889;50.596;8.690;2023-03-05T04:17:20;2.75;;;0.35;;
14169;SDS011;63889;50.596;8.690;2023-03-05T04:19:46;3.47;;;0.68;;
14169;SDS011;63889;50.596;8.690;2023-03-05T04:22:13;0.85;;;0.45;;
14169;SDS011;63889;50.596;8.690;2023-03-05T04:24:40;5.55;;;0.98;;
14169;SDS011;63889;50.596;8.690;2023-03-05T04:27:06;1.30;;;0.40;;
14169;SDS011;63889;50.596;8.690;2023-03-05T04:29:32;4.75;;;0.73;;
14169;SDS011;63889;50.596;8.690;2023-03-05T04:31:58;2.60;;;0.50;;
14169;SDS011;63889;50.596;8.690;2023-03-05T04:34:24;1.60;;;0.63;;
14169;SDS011;63889;50.596;8.690;2023-03-05T04:36:49;5.05;;;1.13;;
14169;SDS011;63889;50.596;8.690;2023-03-05T04:39:15;2.38;;;0.45;;
14169;SDS011;63889;50.596;8.690;2023-03-05T04:41:41;2.20;;;0.50;;
14169;SDS011;63889;50.596;8.690;2023-03-05T04:44:06;2.50;;;0.50;;
14169;SDS011;63889;50.596;8.690;2023-03-05T04:46:32;2.38;;;0.50;;
14169;SDS011;63889;50.596;8.690;2023-03-05T04:48:58;2.10;;;0.30;;
14169;SDS011;63889;50.596;8.690;2023-03-05T04:51:23;2.47;;;0.55;;
14169;SDS011;63889;50.596;8.690;2023-03-05T04:53:49;2.97;;;0.73;;
14169;SDS011;63889;50.596;8.690;2023-03-05T04:56:15;5.20;;;0.75;;
14169;SDS011;63889;50.596;8.690;2023-03-05T04:58:40;3.15;;;0.55;;
14169;SDS011;63889;50.596;8.690;2023-03-05T05:01:06;1.13;;;0.50;;
14169;SDS011;63889;50.596;8.690;2023-03-05T05:03:32;3.20;;;0.40;;
14169;SDS011;63889;50.596;8.690;2023-03-05T05:05:58;3.67;;;0.40;;
14169;SDS011;63889;50.596;8.690;2023-03-05T05:08:24;3.88;;;0.50;;
14169;SDS011;63889;50.596;8.690;2023-03-05T05:11:01;1.58;;;0.50;;
14169;SDS011;63889;50.596;8.690;2023-03-05T05:13:29;3.92;;;0.50;;
14169;SDS011;63889;50.596;8.690;2023-03-05T05:15:55;2.05;;;0.40;;
14169;SDS011;63889;50.596;8.690;2023-03-05T05:18:21;1.17;;;0.63;;
14169;SDS011;63889;50.596;8.690;2023-03-05T05:20:47;7.55;;;0.93;;
14169;SDS011;63889;50.596;8.690;2023-03-05T05:23:13;8.25;;;0.57;;
14169;SDS011;63889;50.596;8.690;2023-03-05T05:25:40;2.65;;;0.55;;
14169;SDS011;63889;50.596;8.690;2023-03-05T05:28:07;3.22;;;0.77;;
14169;SDS011;63889;50.596;8.690;2023-03-05T05:30:33;3.40;;;0.35;;
14169;SDS011;63889;50.596;8.690;2023-03-05T05:32:59;3.08;;;0.55;;
14169;SDS011;63889;50.596;8.690;2023-03-05T05:35:24;2.65;;;0.63;;
14169;SDS011;63889;50.596;8.690;2023-03-05T05:37:50;1.27;;;0.40;;
14169;SDS011;63889;50.596;8.690;2023-03-05T05:40:16;6.20;;;0.80;;
14169;SDS011;63889;50.596;8.690;2023-03-05T05:42:41;1.90;;;0.70;;
14169;SDS011;63889;50.596;8.690;2023-03-05T05:45:08;1.98;;;1.00;;
14169;SDS011;63889;50.596;8.690;2023-03-05T05:47:34;7.85;;;0.57;;
14169;SDS011;63889;50.596;8.690;2023-03-05T05:50:00;2.45;;;0.60;;
14169;SDS011;63889;50.596;8.690;2023-03-05T05:52:25;2.15;;;0.60;;
14169;SDS011;63889;50.596;8.690;2023-03-05T05:54:51;1.02;;;0.50;;
14169;SDS011;63889;50.596;8.690;2023-03-05T05:57:16;1.30;;;0.35;;
14169;SDS011;63889;50.596;8.690;2023-03-05T05:59:42;4.57;;;0.63;;
14169;SDS011;63889;50.596;8.690;2023-03-05T06:02:07;2.00;;;0.40;;
14169;SDS011;63889;50.596;8.690;2023-03-05T06:04:35;5.70;;;0.90;;
14169;SDS011;63889;50.596;8.690;2023-03-05T06:07:00;0.90;;;0.60;;
14169;SDS011;63889;50.596;8.690;2023-03-05T06:09:27;1.35;;;0.60;;
14169;SDS011;63889;50.596;8.690;2023-03-05T06:11:52;2.28;;;0.40;;
14169;SDS011;63889;50.596;8.690;2023-03-05T06:14:18;2.47;;;1.02;;
14169;SDS011;63889;50.596;8.690;2023-03-05T06:16:44;2.10;;;0.73;;
14169;SDS011;63889;50.596;8.690;2023-03-05T06:19:10;3.95;;;0.90;;
14169;SDS011;63889;50.596;8.690;2023-03-05T06:21:37;6.53;;;1.98;;
14169;SDS011;63889;50.596;8.690;2023-03-05T06:24:03;9.23;;;2.42;;
14169;SDS011;63889;50.596;8.690;2023-03-05T06:26:29;5.40;;;1.70;;
14169;SDS011;63889;50.596;8.690;2023-03-05T06:28:54;4.53;;;1.00;;
14169;SDS011;63889;50.596;8.690;2023-03-05T06:31:24;4.18;;;0.70;;
14169;SDS011;63889;50.596;8.690;2023-03-05T06:33:51;2.25;;;0.90;;
14169;SDS011;63889;50.596;8.690;2023-03-05T06:36:19;2.22;;;0.80;;
14169;SDS011;63889;50.596;8.690;2023-03-05T06:38:46;3.20;;;0.70;;
14169;SDS011;63889;50.596;8.690;2023-03-05T06:41:14;2.53;;;0.80;;
14169;SDS011;63889;50.596;8.690;2023-03-05T06:43:45;3.55;;;0.90;;
14169;SDS011;63889;50.596;8.690;2023-03-05T06:46:13;6.53;;;0.80;;
14169;SDS011;63889;50.596;8.690;2023-03-05T06:48:41;4.75;;;0.95;;
14169;SDS011;63889;50.596;8.690;2023-03-05T06:56:04;2.75;;;0.60;;
14169;SDS011;63889;50.596;8.690;2023-03-05T06:58:30;1.33;;;0.70;;
14169;SDS011;63889;50.596;8.690;2023-03-05T07:00:56;3.53;;;0.80;;
14169;SDS011;63889;50.596;8.690;2023-03-05T07:03:21;4.25;;;1.00;;
14169;SDS011;63889;50.596;8.690;2023-03-05T07:05:47;4.57;;;1.15;;
14169;SDS011;63889;50.596;8.690;2023-03-05T07:08:12;3.30;;;0.93;;
14169;SDS011;63889;50.596;8.690;2023-03-05T07:10:38;3.28;;;1.10;;
14169;SDS011;63889;50.596;8.690;2023-03-05T07:13:05;2.50;;;1.02;;
14169;SDS011;63889;50.596;8.690;2023-03-05T07:15:32;3.95;;;1.10;;
14169;SDS011;63889;50.596;8.690;2023-03-05T07:17:57;3.13;;;1.50;;
14169;SDS011;63889;50.596;8.690;2023-03-05T07:20:23;7.45;;;1.63;;
14169;SDS011;63889;50.596;8.690;2023-03-05T07:22:48;7.00;;;1.67;;
14169;SDS011;63889;50.596;8.690;2023-03-05T07:25:14;6.03;;;1.88;;
14169;SDS011;63889;50.596;8.690;2023-03-05T07:27:45;3.13;;;1.90;;
14169;SDS011;63889;50.596;8.690;2023-03-05T07:30:11;6.25;;;2.08;;
14169;SDS011;63889;50.596;8.690;2023-03-05T07:32:37;3.85;;;1.60;;
14169;SDS011;63889;50.596;8.690;2023-03-05T07:35:02;7.07;;;2.08;;
14169;SDS011;63889;50.596;8.690;2023-03-05T07:37:28;5.13;;;2.45;;
14169;SDS011;63889;50.596;8.690;2023-03-05T07:39:54;7.97;;;2.08;;
14169;SDS011;63889;50.596;8.690;2023-03-05T07:42:19;12.73;;;3.40;;
14169;SDS011;63889;50.596;8.690;2023-03-05T07:44:45;9.25;;;3.25;;
14169;SDS011;63889;50.596;8.690;2023-03-05T07:47:10;13.25;;;5.38;;
14169;SDS011;63889;50.596;8.690;2023-03-05T07:49:36;11.40;;;4.25;;
14169;SDS011;63889;50.596;8.690;2023-03-05T07:52:04;7.97;;;3.22;;
14169;SDS011;63889;50.596;8.690;2023-03-05T07:54:30;10.32;;;3.92;;
14169;SDS011;63889;50.596;8.690;2023-03-05T07:56:55;8.32;;;2.72;;
14169;SDS011;63889;50.596;8.690;2023-03-05T07:59:21;5.28;;;3.00;;
14169;SDS011;63889;50.596;8.690;2023-03-05T08:01:46;9.48;;;2.85;;
14169;SDS011;63889;50.596;8.690;2023-03-05T08:04:12;6.60;;;2.45;;
14169;SDS011;63889;50.596;8.690;2023-03-05T08:06:38;5.80;;;3.00;;
14169;SDS011;63889;50.596;8.690;2023-03-05T08:09:04;13.88;;;4.75;;
14169;SDS011;63889;50.596;8.690;2023-03-05T08:11:30;6.30;;;3.10;;
14169;SDS011;63889;50.596;8.690;2023-03-05T08:13:56;7.20;;;3.17;;
14169;SDS011;63889;50.596;8.690;2023-03-05T08:16:23;7.65;;;3.25;;
14169;SDS011;63889;50.596;8.690;2023-03-05T08:18:52;11.32;;;3.22;;
14169;SDS011;63889;50.596;8.690;2023-03-05T08:21:24;13.07;;;3.60;;
14169;SDS011;63889;50.596;8.690;2023-03-05T08:23:53;8.65;;;3.58;;
14169;SDS011;63889;50.596;8.690;2023-03-05T08:26:22;10.23;;;4.13;;
14169;SDS011;63889;50.596;8.690;2023-03-05T08:28:49;9.75;;;3.30;;
14169;SDS011;63889;50.596;8.690;2023-03-05T08:31:16;7.90;;;3.25;;
14169;SDS011;63889;50.596;8.690;2023-03-05T08:33:43;8.55;;;3.55;;
14169;SDS011;63889;50.596;8.690;2023-03-05T08:36:08;7.55;;;2.88;;
14169;SDS011;63889;50.596;8.690;2023-03-05T08:38:34;12.68;;;4.03;;
14169;SDS011;63889;50.596;8.690;2023-03-05T08:41:00;12.05;;;3.58;;
14169;SDS011;63889;50.596;8.690;2023-03-05T08:43:26;9.27;;;4.03;;
14169;SDS011;63889;50.596;8.690;2023-03-05T08:45:52;11.98;;;3.50;;
14169;SDS011;63889;50.596;8.690;2023-03-05T08:48:18;9.75;;;3.95;;
14169;SDS011;63889;50.596;8.690;2023-03-05T08:50:44;12.43;;;3.83;;
14169;SDS011;63889;50.596;8.690;2023-03-05T08:53:10;14.75;;;3.67;;
14169;SDS011;63889;50.596;8.690;2023-03-05T08:55:36;14.43;;;3.88;;
14169;SDS011;63889;50.596;8.690;2023-03-05T08:58:02;11.77;;;4.07;;
14169;SDS011;63889;50.596;8.690;2023-03-05T09:00:28;8.43;;;4.15;;
14169;SDS011;63889;50.596;8.690;2023-03-05T09:02:53;9.95;;;4.95;;
14169;SDS011;63889;50.596;8.690;2023-03-05T09:05:19;12.23;;;4.05;;
14169;SDS011;63889;50.596;8.690;2023-03-05T09:07:44;15.52;;;3.97;;
14169;SDS011;63889;50.596;8.690;2023-03-05T09:10:10;10.00;;;3.78;;
14169;SDS011;63889;50.596;8.690;2023-03-05T09:12:38;8.30;;;3.88;;
14169;SDS011;63889;50.596;8.690;2023-03-05T09:15:08;9.65;;;3.45;;
14169;SDS011;63889;50.596;8.690;2023-03-05T09:17:36;11.43;;;4.68;;
14169;SDS011;63889;50.596;8.690;2023-03-05T09:20:03;13.73;;;4.30;;
14169;SDS011;63889;50.596;8.690;2023-03-05T09:22:30;8.90;;;3.75;;
14169;SDS011;63889;50.596;8.690;2023-03-05T09:24:56;10.57;;;4.30;;
14169;SDS011;63889;50.596;8.690;2023-03-05T09:27:22;9.57;;;4.05;;
14169;SDS011;63889;50.596;8.690;2023-03-05T09:29:48;11.45;;;4.03;;
14169;SDS011;63889;50.596;8.690;2023-03-05T09:32:14;12.27;;;4.70;;
14169;SDS011;63889;50.596;8.690;2023-03-05T09:34:40;19.65;;;5.75;;
14169;SDS011;63889;50.596;8.690;2023-03-05T09:37:05;7.35;;;3.53;;
14169;SDS011;63889;50.596;8.690;2023-03-05T09:39:32;11.85;;;4.78;;
14169;SDS011;63889;50.596;8.690;2023-03-05T09:50:43;9.65;;;4.10;;
14169;SDS011;63889;50.596;8.690;2023-03-05T09:56:21;8.35;;;4.32;;
14169;SDS011;63889;50.596;8.690;2023-03-05T09:58:54;13.73;;;4.57;;
14169;SDS011;63889;50.596;8.690;2023-03-05T10:01:36;12.77;;;5.03;;
14169;SDS011;63889;50.596;8.690;2023-03-05T10:06:46;12.50;;;5.35;;
14169;SDS011;63889;50.596;8.690;2023-03-05T10:09:21;9.82;;;4.57;;
14169;SDS011;63889;50.596;8.690;2023-03-05T10:22:29;7.28;;;2.45;;
14169;SDS011;63889;50.596;8.690;2023-03-05T10:27:48;4.25;;;2.00;;
14169;SDS011;63889;50.596;8.690;2023-03-05T10:30:31;4.60;;;2.15;;
14169;SDS011;63889;50.596;8.690;2023-03-05T10:33:31;4.68;;;2.17;;
14169;SDS011;63889;50.596;8.690;2023-03-05T10:41:54;9.48;;;2.50;;
14169;SDS011;63889;50.596;8.690;2023-03-05T10:44:32;7.60;;;2.65;;
14169;SDS011;63889;50.596;8.690;2023-03-05T10:47:20;6.05;;;2.15;;
14169;SDS011;63889;50.596;8.690;2023-03-05T10:49:50;4.90;;;2.50;;
14169;SDS011;63889;50.596;8.690;2023-03-05T10:52:23;6.82;;;1.92;;
14169;SDS011;63889;50.596;8.690;2023-03-05T10:54:57;3.83;;;2.15;;
14169;SDS011;63889;50.596;8.690;2023-03-05T10:57:24;7.30;;;1.92;;
14169;SDS011;63889;50.596;8.690;2023-03-05T10:59:52;9.73;;;1.83;;
14169;SDS011;63889;50.596;8.690;2023-03-05T11:02:30;6.95;;;1.77;;
14169;SDS011;63889;50.596;8.690;2023-03-05T11:04:56;3.28;;;1.50;;
14169;SDS011;63889;50.596;8.690;2023-03-05T11:12:32;1.20;;;0.85;;
14169;SDS011;63889;50.596;8.690;2023-03-05T11:15:17;2.73;;;1.17;;
14169;SDS011;63889;50.596;8.690;2023-03-05T11:20:40;4.82;;;1.00;;
14169;SDS011;63889;50.596;8.690;2023-03-05T11:25:58;7.15;;;1.50;;
14169;SDS011;63889;50.596;8.690;2023-03-05T11:33:28;5.90;;;1.48;;
14169;SDS011;63889;50.596;8.690;2023-03-05T11:36:09;2.25;;;1.17;;
14169;SDS011;63889;50.596;8.690;2023-03-05T11:41:37;1.85;;;1.10;;
14169;SDS011;63889;50.596;8.690;2023-03-05T11:44:10;3.33;;;1.38;;
14169;SDS011;63889;50.596;8.690;2023-03-05T11:46:40;4.63;;;1.15;;
14169;SDS011;63889;50.596;8.690;2023-03-05T11:49:07;1.73;;;1.17;;
14169;SDS011;63889;50.596;8.690;2023-03-05T11:52:03;3.72;;;1.27;;
14169;SDS011;63889;50.596;8.690;2023-03-05T11:54:32;1.50;;;0.85;;
14169;SDS011;63889;50.596;8.690;2023-03-05T11:57:04;2.35;;;1.10;;
14169;SDS011;63889;50.596;8.690;2023-03-05T11:59:32;4.75;;;1.17;;
14169;SDS011;63889;50.596;8.690;2023-03-05T12:02:08;2.63;;;1.20;;
14169;SDS011;63889;50.596;8.690;2023-03-05T12:04:57;6.35;;;1.38;;
14169;SDS011;63889;50.596;8.690;2023-03-05T12:07:34;2.33;;;1.35;;
14169;SDS011;63889;50.596;8.690;2023-03-05T12:10:04;4.38;;;1.63;;
14169;SDS011;63889;50.596;8.690;2023-03-05T12:12:36;4.60;;;1.60;;
14169;SDS011;63889;50.596;8.690;2023-03-05T12:15:23;3.72;;;1.27;;
14169;SDS011;63889;50.596;8.690;2023-03-05T12:20:56;5.78;;;1.33;;
14169;SDS011;63889;50.596;8.690;2023-03-05T12:23:48;3.15;;;1.10;;
14169;SDS011;63889;50.596;8.690;2023-03-05T12:26:52;1.00;;;0.80;;
14169;SDS011;63889;50.596;8.690;2023-03-05T12:29:30;3.70;;;0.73;;
14169;SDS011;63889;50.596;8.690;2023-03-05T12:47:40;3.22;;;1.60;;
14169;SDS011;63889;50.596;8.690;2023-03-05T12:52:51;7.93;;;2.60;;
14169;SDS011;63889;50.596;8.690;2023-03-05T12:55:18;5.50;;;1.70;;
14169;SDS011;63889;50.596;8.690;2023-03-05T12:57:46;4.00;;;2.05;;
14169;SDS011;63889;50.596;8.690;2023-03-05T13:00:24;4.50;;;2.30;;
14169;SDS011;63889;50.596;8.690;2023-03-05T13:02:57;5.18;;;2.20;;
14169;SDS011;63889;50.596;8.690;2023-03-05T13:05:31;8.15;;;1.70;;
14169;SDS011;63889;50.596;8.690;2023-03-05T13:13:25;2.47;;;1.60;;
14169;SDS011;63889;50.596;8.690;2023-03-05T13:15:52;3.67;;;1.50;;
14169;SDS011;63889;50.596;8.690;2023-03-05T13:18:25;5.75;;;2.83;;
14169;SDS011;63889;50.596;8.690;2023-03-05T13:21:06;3.15;;;1.65;;
14169;SDS011;63889;50.596;8.690;2023-03-05T13:23:37;3.25;;;1.90;;
14169;SDS011;63889;50.596;8.690;2023-03-05T13:26:11;5.28;;;2.85;;
14169;SDS011;63889;50.596;8.690;2023-03-05T13:28:43;4.60;;;1.60;;
14169;SDS011;63889;50.596;8.690;2023-03-05T13:31:16;2.85;;;1.65;;
14169;SDS011;63889;50.596;8.690;2023-03-05T13:33:49;2.08;;;1.40;;
14169;SDS011;63889;50.596;8.690;2023-03-05T13:36:18;2.33;;;1.40;;
14169;SDS011;63889;50.596;8.690;2023-03-05T13:38:44;2.55;;;1.50;;
14169;SDS011;63889;50.596;8.690;2023-03-05T13:46:09;3.45;;;1.52;;
14169;SDS011;63889;50.596;8.690;2023-03-05T13:48:35;4.63;;;1.88;;
14169;SDS011;63889;50.596;8.690;2023-03-05T13:51:00;2.42;;;1.25;;
14169;SDS011;63889;50.596;8.690;2023-03-05T13:53:30;1.58;;;1.30;;
14169;SDS011;63889;50.596;8.690;2023-03-05T13:55:59;6.47;;;2.10;;
14169;SDS011;63889;50.596;8.690;2023-03-05T14:01:11;6.03;;;1.90;;
14169;SDS011;63889;50.596;8.690;2023-03-05T14:03:52;4.88;;;2.20;;
14169;SDS011;63889;50.596;8.690;2023-03-05T14:06:21;5.13;;;2.00;;
14169;SDS011;63889;50.596;8.690;2023-03-05T14:08:52;3.17;;;1.92;;
14169;SDS011;63889;50.596;8.690;2023-03-05T14:11:23;3.40;;;1.92;;
14169;SDS011;63889;50.596;8.690;2023-03-05T14:13:48;10.10;;;2.47;;
14169;SDS011;63889;50.596;8.690;2023-03-05T14:16:26;4.00;;;1.60;;
14169;SDS011;63889;50.596;8.690;2023-03-05T14:18:58;5.75;;;1.88;;
14169;SDS011;63889;50.596;8.690;2023-03-05T14:21:25;3.63;;;1.88;;
14169;SDS011;63889;50.596;8.690;2023-03-05T14:24:11;4.28;;;1.60;;
14169;SDS011;63889;50.596;8.690;2023-03-05T14:26:53;3.97;;;2.03;;
14169;SDS011;63889;50.596;8.690;2023-03-05T14:29:21;6.68;;;2.30;;
14169;SDS011;63889;50.596;8.690;2023-03-05T14:34:31;4.90;;;2.47;;
14169;SDS011;63889;50.596;8.690;2023-03-05T14:37:02;2.65;;;1.92;;
14169;SDS011;63889;50.596;8.690;2023-03-05T14:39:31;6.07;;;2.85;;
14169;SDS011;63889;50.596;8.690;2023-03-05T14:44:50;4.25;;;2.90;;
14169;SDS011;63889;50.596;8.690;2023-03-05T14:47:15;6.10;;;2.83;;
14169;SDS011;63889;50.596;8.690;2023-03-05T14:49:41;4.38;;;3.17;;
14169;SDS011;63889;50.596;8.690;2023-03-05T14:52:08;8.93;;;3.17;;
14169;SDS011;63889;50.596;8.690;2023-03-05T14:54:38;4.65;;;2.80;;
14169;SDS011;63889;50.596;8.690;2023-03-05T14:57:04;8.05;;;3.20;;
14169;SDS011;63889;50.596;8.690;2023-03-05T14:59:30;6.35;;;3.80;;
14169;SDS011;63889;50.596;8.690;2023-03-05T15:01:55;10.52;;;3.97;;
14169;SDS011;63889;50.596;8.690;2023-03-05T15:04:21;7.47;;;4.25;;
14169;SDS011;63889;50.596;8.690;2023-03-05T15:06:47;5.30;;;3.63;;
14169;SDS011;63889;50.596;8.690;2023-03-05T15:09:15;9.18;;;4.35;;
14169;SDS011;63889;50.596;8.690;2023-03-05T15:11:43;9.20;;;4.15;;
14169;SDS011;63889;50.596;8.690;2023-03-05T15:14:09;9.18;;;4.82;;
14169;SDS011;63889;50.596;8.690;2023-03-05T15:16:35;12.40;;;5.00;;
14169;SDS011;63889;50.596;8.690;2023-03-05T15:19:01;11.23;;;4.78;;
14169;SDS011;63889;50.596;8.690;2023-03-05T15:21:27;11.77;;;5.25;;
14169;SDS011;63889;50.596;8.690;2023-03-05T15:23:53;10.13;;;4.75;;
14169;SDS011;63889;50.596;8.690;2023-03-05T15:26:19;9.07;;;4.85;;
14169;SDS011;63889;50.596;8.690;2023-03-05T15:28:45;16.13;;;5.07;;
14169;SDS011;63889;50.596;8.690;2023-03-05T15:31:11;12.43;;;4.68;;
14169;SDS011;63889;50.596;8.690;2023-03-05T15:33:37;10.57;;;4.82;;
14169;SDS011;63889;50.596;8.690;2023-03-05T15:36:03;9.90;;;4.07;;
14169;SDS011;63889;50.596;8.690;2023-03-05T15:38:29;9.77;;;4.63;;
14169;SDS011;63889;50.596;8.690;2023-03-05T15:40:54;8.65;;;4.22;;
14169;SDS011;63889;50.596;8.690;2023-03-05T15:43:20;8.00;;;3.65;;
14169;SDS011;63889;50.596;8.690;2023-03-05T15:45:45;10.63;;;4.82;;
14169;SDS011;63889;50.596;8.690;2023-03-05T15:48:11;7.70;;;4.22;;
14169;SDS011;63889;50.596;8.690;2023-03-05T15:50:38;9.38;;;4.28;;
14169;SDS011;63889;50.596;8.690;2023-03-05T15:53:05;11.57;;;4.90;;
14169;SDS011;63889;50.596;8.690;2023-03-05T15:55:35;9.68;;;4.40;;
14169;SDS011;63889;50.596;8.690;2023-03-05T15:58:01;7.65;;;3.70;;
14169;SDS011;63889;50.596;8.690;2023-03-05T16:00:28;8.77;;;4.13;;
14169;SDS011;63889;50.596;8.690;2023-03-05T16:02:54;9.48;;;4.15;;
14169;SDS011;63889;50.596;8.690;2023-03-05T16:05:20;11.73;;;4.97;;
14169;SDS011;63889;50.596;8.690;2023-03-05T16:07:46;11.02;;;4.72;;
14169;SDS011;63889;50.596;8.690;2023-03-05T16:10:15;11.25;;;4.30;;
14169;SDS011;63889;50.596;8.690;2023-03-05T16:12:44;8.90;;;4.13;;
14169;SDS011;63889;50.596;8.690;2023-03-05T16:15:14;11.05;;;4.53;;
14169;SDS011;63889;50.596;8.690;2023-03-05T16:17:43;10.00;;;4.47;;
14169;SDS011;63889;50.596;8.690;2023-03-05T16:20:12;9.48;;;4.93;;
14169;SDS011;63889;50.596;8.690;2023-03-05T16:22:38;9.45;;;4.40;;
14169;SDS011;63889;50.596;8.690;2023-03-05T16:25:04;14.20;;;5.38;;
14169;SDS011;63889;50.596;8.690;2023-03-05T16:27:30;8.55;;;4.60;;